Time;durP1;ratioP1;P1;durP2;ratioP2;P2;SDS_P1;SDS_P2;PMS_P1;PMS_P2;Temp;Humidity;BMP_temperature;BMP_pressure;BME280_temperature;BME280_humidity;BME280_pressure;Samples;Min_cycle;Max_cycle;Signal;HPM_P1;HPM_P2
2022/12/21 00:02:41;;;;;;;19.80;10.78;;;;;;;0.16;72.20;101226.97;1778973;80;21186;-86
2022/12/21 00:05:48;;;;;;;18.37;11.65;;;;;;;0.09;72.02;101225.09;1772469;79;21239;-84
2022/12/21 00:08:55;;;;;;;18.02;10.35;;;;;;;0.10;72.19;101226.84;1719483;83;21239;-85
2022/12/21 00:12:01;;;;;;;19.65;11.18;;;;;;;0.16;71.99;101221.59;1766403;80;21176;-84
2022/12/21 00:15:07;;;;;;;15.18;9.45;;;;;;;0.30;71.84;101201.96;1716312;83;21231;-84
2022/12/21 00:18:13;;;;;;;16.57;10.68;;;;;;;0.31;71.48;101205.03;1761991;81;21159;-84
2022/12/21 00:21:29;;;;;;;17.80;9.55;;;;;;;0.25;71.27;101202.22;1772639;80;21199;-81
2022/12/21 00:24:34;;;;;;;20.35;10.72;;;;;;;0.29;71.17;101194.84;1728159;82;21164;-82
2022/12/21 00:27:40;;;;;;;23.52;12.45;;;;;;;0.16;71.32;101190.64;1746268;81;21169;-81
2022/12/21 00:30:45;;;;;;;20.17;12.18;;;;;;;0.16;71.16;101185.27;1747549;81;21291;-81
2022/12/21 00:33:52;;;;;;;15.78;10.18;;;;;;;0.20;70.86;101178.75;1735796;82;21729;-82
2022/12/21 00:37:01;;;;;;;19.90;11.35;;;;;;;0.10;70.80;101173.04;1745127;81;21175;-82
2022/12/21 00:40:07;;;;;;;20.02;11.05;;;;;;;-0.01;71.01;101175.45;1729702;83;21194;-82
2022/12/21 00:43:12;;;;;;;21.07;11.90;;;;;;;-0.06;71.33;101174.38;1728085;83;21198;-82
2022/12/21 00:46:26;;;;;;;25.45;11.12;;;;;;;-0.07;71.26;101169.09;1728771;83;21200;-82
2022/12/21 00:49:32;;;;;;;17.75;9.75;;;;;;;0.03;71.19;101154.16;1728439;83;21222;-80
2022/12/21 00:52:37;;;;;;;15.32;10.40;;;;;;;0.01;70.94;101153.39;1731269;81;21181;-81
2022/12/21 00:55:44;;;;;;;15.55;9.03;;;;;;;0.03;70.92;101146.56;1731429;83;21206;-82
2022/12/21 00:58:50;;;;;;;17.92;10.82;;;;;;;-0.01;71.12;101136.45;1730713;83;21213;-82
2022/12/21 01:01:50;;;;;;;18.95;10.72;;;;;;;-0.07;71.40;101135.47;1731296;83;21249;-83
2022/12/21 01:04:56;;;;;;;17.32;10.63;;;;;;;-0.10;71.18;101130.27;1731574;82;21280;-82
2022/12/21 01:08:02;;;;;;;17.48;9.75;;;;;;;-0.05;71.09;101134.89;1761023;81;21172;-82
2022/12/21 01:11:11;;;;;;;17.15;9.43;;;;;;;-0.06;71.09;101130.48;1728383;83;21196;-82
2022/12/21 01:14:16;;;;;;;17.25;10.60;;;;;;;-0.08;71.18;101127.02;1801424;79;21515;-82
2022/12/21 01:17:22;;;;;;;17.82;9.98;;;;;;;-0.06;71.00;101126.44;1806072;79;21245;-82
2022/12/21 01:20:26;;;;;;;15.98;9.35;;;;;;;-0.01;71.08;101131.94;1800421;79;21455;-81
2022/12/21 01:23:32;;;;;;;21.27;10.15;;;;;;;0.07;70.96;101115.37;1801197;79;21189;-83
2022/12/21 01:26:38;;;;;;;16.90;10.05;;;;;;;0.04;70.72;101103.91;1798412;79;21189;-83
2022/12/21 01:29:44;;;;;;;18.32;10.03;;;;;;;0.15;70.63;101109.06;1796777;80;21173;-83
2022/12/21 01:32:44;;;;;;;16.32;9.73;;;;;;;0.18;70.47;101112.04;1798793;78;21218;-82
2022/12/21 01:35:46;;;;;;;14.73;9.95;;;;;;;0.21;70.35;101101.11;1795998;80;21201;-82
2022/12/21 01:38:52;;;;;;;24.60;11.70;;;;;;;0.35;70.07;101094.91;1764528;81;21232;-82
2022/12/21 01:41:58;;;;;;;27.58;14.13;;;;;;;0.28;69.98;101085.45;1764779;81;21192;-82
2022/12/21 01:45:28;;;;;;;18.90;10.13;;;;;;;0.28;70.28;101080.93;1764569;81;21282;-82
2022/12/21 01:48:35;;;;;;;16.87;10.25;;;;;;;0.34;69.74;101075.20;1764673;81;21294;-82
2022/12/21 01:51:43;;;;;;;15.88;9.28;;;;;;;0.34;69.83;101081.06;1763703;80;21274;-82
2022/12/21 01:54:58;;;;;;;15.65;8.45;;;;;;;0.47;69.72;101082.93;1765646;81;21231;-81
2022/12/21 01:58:03;;;;;;;18.35;10.20;;;;;;;0.49;69.30;101075.61;1765917;81;21184;-82
2022/12/21 02:01:11;;;;;;;15.70;9.28;;;;;;;0.51;69.30;101080.41;1765715;81;22077;-82
2022/12/21 02:04:18;;;;;;;13.58;9.00;;;;;;;0.36;69.79;101071.06;1766019;81;21243;-81
2022/12/21 02:07:24;;;;;;;14.98;8.35;;;;;;;0.32;70.06;101066.34;1763332;81;21203;-81
2022/12/21 02:10:29;;;;;;;12.13;8.13;;;;;;;0.27;70.09;101067.09;1764870;81;21243;-81
2022/12/21 02:13:35;;;;;;;13.88;8.15;;;;;;;0.38;70.10;101063.78;1764685;81;21207;-82
2022/12/21 02:17:01;;;;;;;15.10;9.00;;;;;;;0.48;69.87;101063.13;1764551;81;21722;-82
2022/12/21 02:20:31;;;;;;;17.37;9.48;;;;;;;0.69;68.97;101062.27;1764842;81;21223;-82
2022/12/21 02:24:00;;;;;;;9.83;6.00;;;;;;;0.72;68.59;101048.62;1766385;81;21231;-85
2022/12/21 02:27:32;;;;;;;14.20;8.83;;;;;;;0.64;68.17;101050.91;1766146;81;21302;-85
2022/12/21 02:31:05;;;;;;;14.05;9.13;;;;;;;0.67;67.57;101048.53;1765033;81;21188;-85
2022/12/21 02:34:21;;;;;;;12.03;8.08;;;;;;;0.64;67.81;101043.33;1741322;81;21239;-84
2022/12/21 02:37:50;;;;;;;14.98;9.08;;;;;;;0.67;67.85;101030.55;1764672;80;21211;-85
2022/12/21 02:41:40;;;;;;;18.42;9.75;;;;;;;0.69;67.57;101029.95;1764815;81;21243;-86
2022/12/21 02:44:53;;;;;;;20.68;11.68;;;;;;;0.72;67.55;101023.53;1765972;81;21159;-87
2022/12/21 02:47:54;;;;;;;16.40;8.60;;;;;;;0.57;67.65;101025.84;1765796;81;21192;-85
2022/12/21 02:51:02;;;;;;;14.63;8.58;;;;;;;0.43;67.82;101026.20;1764637;80;21231;-85
2022/12/21 02:54:09;;;;;;;;;;;;;;;0.49;67.94;101008.80;1768501;81;21203;-84
2022/12/21 02:57:15;;;;;;;14.50;8.13;;;;;;;0.53;67.91;101019.77;1785807;78;20231;-84
2022/12/21 03:00:24;;;;;;;12.40;8.47;;;;;;;0.49;67.94;101015.53;1806185;78;21253;-82
2022/12/21 03:03:51;;;;;;;14.20;8.38;;;;;;;0.48;67.98;101015.15;1800065;78;21170;-82
2022/12/21 03:07:09;;;;;;;14.15;8.88;;;;;;;0.46;67.95;101019.74;1785742;78;21198;-84
2022/12/21 03:10:31;;;;;;;13.32;7.62;;;;;;;0.43;68.39;101007.84;1781213;80;21796;-82
2022/12/21 03:14:21;;;;;;;12.63;7.67;;;;;;;0.50;68.53;101009.17;1792403;79;21241;-82
2022/12/21 03:17:51;;;;;;;13.72;7.90;;;;;;;0.43;68.85;101005.15;1798994;80;21174;-82
2022/12/21 03:21:14;;;;;;;17.05;8.88;;;;;;;0.41;68.87;100985.52;1797976;80;21749;-82
2022/12/21 03:24:33;;;;;;;15.40;8.58;;;;;;;0.40;69.04;100983.80;1798909;80;21229;-82
2022/12/21 03:27:44;;;;;;;20.27;10.68;;;;;;;0.40;69.04;100978.41;1799029;80;21178;-81
2022/12/21 03:30:45;;;;;;;;;;;;;;;0.62;68.46;100981.50;1800682;80;21213;-82
2022/12/21 03:33:46;;;;;;;10.53;6.60;;;;;;;0.50;68.54;100980.43;1797383;80;20625;-82
2022/12/21 03:37:07;;;;;;;13.03;7.70;;;;;;;0.57;68.58;100971.51;1798759;80;21332;-81
2022/12/21 03:40:24;;;;;;;11.25;6.85;;;;;;;0.61;68.74;100972.16;1797534;80;21262;-82
2022/12/21 03:43:39;;;;;;;11.53;6.60;;;;;;;0.73;68.61;100977.64;1799011;80;21178;-82
2022/12/21 03:47:05;;;;;;;17.15;7.03;;;;;;;0.71;68.71;100971.98;1797518;80;21183;-82
2022/12/21 03:50:13;;;;;;;11.50;7.20;;;;;;;0.62;69.04;100966.70;1798800;80;21229;-82
2022/12/21 03:53:52;;;;;;;12.82;7.40;;;;;;;0.55;69.68;100962.64;1797491;80;21211;-83
2022/12/21 03:56:57;;;;;;;11.50;7.70;;;;;;;0.64;69.57;100958.03;1798684;80;21230;-82
2022/12/21 04:00:04;;;;;;;12.47;7.60;;;;;;;0.64;69.58;100962.06;1798986;80;21163;-83
2022/12/21 04:03:32;;;;;;;13.60;8.10;;;;;;;0.59;69.80;100958.80;1775664;80;21177;-83
2022/12/21 04:06:40;;;;;;;14.70;8.30;;;;;;;0.61;70.34;100964.97;1803536;78;21798;-83
2022/12/21 04:09:45;;;;;;;12.90;7.80;;;;;;;0.71;70.25;100962.56;1798095;79;21242;-83
2022/12/21 04:12:50;;;;;;;10.95;7.42;;;;;;;0.62;70.54;100965.35;1797247;80;21222;-83
2022/12/21 04:16:05;;;;;;;9.98;6.37;;;;;;;0.60;70.88;100958.31;1798743;80;21171;-82
2022/12/21 04:29:24;;;;;;;10.43;7.53;;;;;;;0.69;71.48;100977.93;1798645;80;21186;-82
2022/12/21 04:32:29;;;;;;;10.55;7.45;;;;;;;0.69;71.79;100977.45;1797373;80;21202;-82
2022/12/21 04:35:34;;;;;;;10.55;6.67;;;;;;;0.72;72.01;100975.92;1798675;80;21729;-82
2022/12/21 04:38:34;;;;;;;9.23;5.83;;;;;;;0.72;72.34;100972.36;1797972;79;21771;-81
2022/12/21 04:41:40;;;;;;;11.57;7.37;;;;;;;0.70;72.77;100958.97;1797864;80;21800;-82
2022/12/21 04:44:54;;;;;;;11.33;6.87;;;;;;;0.74;73.17;100957.82;1706388;84;21741;-78
2022/12/21 04:48:00;;;;;;;11.63;6.65;;;;;;;0.86;73.13;100946.77;1706529;84;21195;-78
2022/12/21 04:51:17;;;;;;;10.60;7.05;;;;;;;0.88;73.60;100939.91;1708484;82;21403;-79
2022/12/21 04:54:23;;;;;;;12.15;8.03;;;;;;;0.89;73.68;100938.95;1712262;83;21230;-79
2022/12/21 04:57:29;;;;;;;15.13;8.90;;;;;;;0.97;73.64;100932.59;1699902;83;21263;-79
2022/12/21 05:00:34;;;;;;;12.03;6.80;;;;;;;0.99;73.81;100918.07;1706686;83;21805;-79
2022/12/21 05:03:39;;;;;;;11.03;6.28;;;;;;;1.19;73.17;100912.70;1700936;83;21238;-80
2022/12/21 05:06:45;;;;;;;11.55;7.45;;;;;;;1.19;73.12;100911.36;1698550;83;21186;-79
2022/12/21 05:09:51;;;;;;;10.43;6.72;;;;;;;1.17;73.35;100912.41;1719541;83;21251;-79
2022/12/21 05:12:58;;;;;;;13.45;6.62;;;;;;;1.04;73.88;100913.73;1680039;84;21251;-79
2022/12/21 05:16:07;;;;;;;10.25;6.70;;;;;;;0.98;74.55;100919.50;1724905;83;21195;-79
2022/12/21 05:19:14;;;;;;;8.53;5.95;;;;;;;0.96;74.78;100914.70;1703918;83;21298;-79
2022/12/21 05:22:20;;;;;;;11.50;7.40;;;;;;;1.02;75.13;100918.34;1731864;83;21203;-79
2022/12/21 05:25:26;;;;;;;11.33;7.28;;;;;;;1.01;75.27;100914.78;1727796;82;21191;-79
2022/12/21 05:28:33;;;;;;;9.88;6.75;;;;;;;1.05;75.45;100914.10;1714391;82;21206;-79
2022/12/21 05:31:39;;;;;;;11.80;7.65;;;;;;;1.08;75.61;100916.58;1705116;82;21225;-79
2022/12/21 05:34:44;;;;;;;11.83;7.45;;;;;;;1.06;75.91;100917.17;1743616;81;21195;-79
2022/12/21 05:37:51;;;;;;;16.12;8.93;;;;;;;1.12;76.05;100913.20;1730615;83;21281;-78
2022/12/21 05:40:58;;;;;;;11.05;6.85;;;;;;;1.28;75.87;100916.62;1730495;82;21845;-79
2022/12/21 05:44:04;;;;;;;14.58;8.23;;;;;;;1.36;75.79;100918.30;1732578;82;21239;-78
2022/12/21 05:47:10;;;;;;;15.80;7.75;;;;;;;1.40;75.94;100918.97;1731093;82;21160;-79
2022/12/21 05:50:17;;;;;;;9.63;7.10;;;;;;;1.46;76.11;100916.75;1734520;82;21735;-79
2022/12/21 05:53:24;;;;;;;12.78;8.15;;;;;;;1.39;76.53;100920.80;1733283;82;21164;-78
2022/12/21 05:56:30;;;;;;;20.12;8.95;;;;;;;1.34;76.97;100927.48;1734680;82;21148;-80
2022/12/21 05:59:35;;;;;;;15.13;8.48;;;;;;;1.51;76.85;100915.95;1734646;82;21180;-79
2022/12/21 06:02:41;;;;;;;13.95;7.72;;;;;;;1.43;77.27;100908.00;1730257;82;21208;-80
2022/12/21 06:05:47;;;;;;;15.18;8.83;;;;;;;1.63;77.10;100896.71;1705205;84;21458;-79
2022/12/21 06:09:03;;;;;;;13.25;8.28;;;;;;;1.63;77.50;100895.36;1777915;75;20524;-79
2022/12/21 06:12:08;;;;;;;18.02;9.38;;;;;;;1.64;77.80;100900.27;1736441;80;21188;-80
2022/12/21 06:15:14;;;;;;;15.43;8.80;;;;;;;1.75;78.00;100898.58;1764319;80;22473;-79
2022/12/21 06:18:20;;;;;;;13.35;7.53;;;;;;;1.91;78.04;100905.61;1735038;80;21224;-79
2022/12/21 06:21:26;;;;;;;14.73;8.60;;;;;;;1.93;78.24;100902.30;1742268;80;21231;-79
2022/12/21 06:24:32;;;;;;;13.10;7.90;;;;;;;1.91;78.79;100886.72;1741956;80;21510;-79
2022/12/21 06:27:38;;;;;;;12.88;7.78;;;;;;;1.98;79.15;100888.03;1764094;80;22499;-78
2022/12/21 06:30:43;;;;;;;11.70;7.85;;;;;;;2.02;79.34;100878.27;1729249;80;21188;-79
2022/12/21 06:33:50;;;;;;;16.35;8.95;;;;;;;2.04;79.47;100880.84;1733935;80;21837;-81
2022/12/21 06:36:56;;;;;;;13.68;8.80;;;;;;;2.08;79.99;100886.41;1747449;80;21259;-80
2022/12/21 06:40:01;;;;;;;11.15;7.70;;;;;;;2.15;79.93;100884.99;1752895;80;21215;-80
2022/12/21 06:43:07;;;;;;;11.88;7.72;;;;;;;2.17;80.21;100886.25;1745930;80;21427;-80
2022/12/21 06:46:17;;;;;;;14.85;8.33;;;;;;;2.07;81.03;100886.50;1743336;80;21219;-80
2022/12/21 06:49:22;;;;;;;15.60;8.98;;;;;;;2.16;81.28;100900.69;1739572;80;21157;-80
2022/12/21 06:52:27;;;;;;;14.70;8.65;;;;;;;2.12;81.74;100902.77;1750663;80;21286;-80
2022/12/21 06:55:33;;;;;;;14.45;8.95;;;;;;;2.14;81.97;100908.05;1743347;80;21168;-80
2022/12/21 06:58:40;;;;;;;16.30;9.60;;;;;;;2.14;82.02;100905.35;1747153;80;21747;-81
2022/12/21 07:01:40;;;;;;;;;;;;;;;2.21;82.03;100904.82;1741938;80;21345;-80
2022/12/21 07:04:46;;;;;;;16.27;9.25;;;;;;;2.10;82.41;100907.39;1743342;80;20642;-80
2022/12/21 07:07:52;;;;;;;16.15;9.50;;;;;;;2.07;82.81;100904.93;1742994;80;21373;-80
2022/12/21 07:11:00;;;;;;;15.48;9.55;;;;;;;2.02;83.24;100905.25;1715587;81;21196;-81
2022/12/21 07:14:05;;;;;;;17.60;10.35;;;;;;;2.03;83.50;100906.97;1719769;81;21195;-78
2022/12/21 07:17:10;;;;;;;17.55;9.93;;;;;;;2.00;83.87;100909.02;1716161;82;21176;-79
2022/12/21 07:20:13;;;;;;;17.30;11.25;;;;;;;2.11;83.88;100909.11;1722342;81;21287;-79
2022/12/21 07:23:19;;;;;;;17.87;10.30;;;;;;;2.19;83.89;100909.45;1722070;82;21244;-80
2022/12/21 07:26:28;;;;;;;13.88;9.25;;;;;;;2.29;83.85;100915.92;1723243;81;21260;-79
2022/12/21 07:29:34;;;;;;;18.67;11.08;;;;;;;2.47;83.57;100920.99;1721814;81;21180;-79
2022/12/21 07:32:40;;;;;;;18.35;9.58;;;;;;;2.54;83.28;100914.16;1714416;81;21212;-79
2022/12/21 07:35:47;;;;;;;15.93;9.33;;;;;;;2.69;82.71;100913.57;1710137;81;21529;-80
2022/12/21 07:38:54;;;;;;;13.03;9.65;;;;;;;2.70;82.33;100920.70;1723264;81;21219;-79
2022/12/21 07:42:00;;;;;;;14.43;8.75;;;;;;;2.67;81.91;100913.66;1719809;81;21193;-79
2022/12/21 07:45:10;;;;;;;14.95;9.58;;;;;;;2.70;81.64;100910.75;1726558;81;21181;-79
2022/12/21 07:48:17;;;;;;;19.67;8.85;;;;;;;2.68;81.27;100907.31;1719933;81;21256;-80
2022/12/21 07:51:23;;;;;;;12.60;8.10;;;;;;;2.58;81.38;100912.11;1719010;81;21756;-80
2022/12/21 07:54:29;;;;;;;15.63;8.73;;;;;;;2.51;81.69;100917.97;1717318;81;21311;-79
2022/12/21 07:57:35;;;;;;;13.38;8.63;;;;;;;2.49;81.95;100917.23;1722508;81;21763;-79
2022/12/21 08:00:40;;;;;;;16.00;10.10;;;;;;;2.65;81.44;100925.56;1719019;82;21243;-79
2022/12/21 08:03:47;;;;;;;17.35;10.90;;;;;;;2.86;80.48;100933.94;1718916;82;21821;-81
2022/12/21 08:06:53;;;;;;;16.80;10.08;;;;;;;2.90;80.29;100927.34;1725040;82;21832;-80
2022/12/21 08:09:59;;;;;;;14.98;9.03;;;;;;;2.91;80.17;100921.81;1731321;80;21214;-80
2022/12/21 08:13:10;;;;;;;18.12;9.33;;;;;;;2.86;80.48;100910.48;1740275;80;21164;-80
2022/12/21 08:16:17;;;;;;;16.50;9.50;;;;;;;2.94;80.43;100921.60;1750160;80;21180;-79
2022/12/21 08:19:24;;;;;;;14.53;8.35;;;;;;;3.01;80.16;100912.55;1736305;80;21176;-80
2022/12/21 08:22:31;;;;;;;14.55;8.75;;;;;;;3.16;79.96;100916.84;1754547;80;21217;-78
2022/12/21 08:25:31;;;;;;;18.15;8.25;;;;;;;3.42;79.27;100905.41;1717215;82;21303;-80
2022/12/21 08:28:24;;;;;;;14.30;8.45;;;;;;;3.76;78.00;100895.56;1708995;82;21295;-80
2022/12/21 08:31:29;;;;;;;15.00;8.48;;;;;;;3.95;77.61;100887.38;1714212;82;21188;-80
2022/12/21 08:34:34;;;;;;;15.68;8.78;;;;;;;3.77;78.25;100890.55;1711387;82;21196;-78
2022/12/21 08:37:40;;;;;;;17.70;9.20;;;;;;;4.05;77.90;100893.82;1707457;82;21228;-80
2022/12/21 08:40:46;;;;;;;12.55;8.20;;;;;;;4.36;76.78;100896.30;1696100;82;21232;-80
2022/12/21 08:43:55;;;;;;;13.80;8.40;;;;;;;4.22;76.82;100890.63;1722186;82;21320;-80
2022/12/21 08:47:01;;;;;;;13.38;8.55;;;;;;;4.34;76.27;100889.66;1715357;82;21165;-80
2022/12/21 08:50:06;;;;;;;11.38;7.92;;;;;;;4.21;76.03;100882.63;1702316;82;21185;-79
2022/12/21 08:53:11;;;;;;;15.08;9.05;;;;;;;4.19;75.85;100872.39;1699844;82;21228;-80
2022/12/21 08:56:16;;;;;;;16.25;8.55;;;;;;;4.40;74.77;100868.48;1710629;82;21182;-79
2022/12/21 08:59:23;;;;;;;20.17;9.48;;;;;;;4.24;75.12;100867.02;1715501;82;21327;-79
2022/12/21 09:02:28;;;;;;;16.65;8.30;;;;;;;3.92;76.04;100871.39;1706879;82;21252;-79
2022/12/21 09:05:34;;;;;;;15.85;9.38;;;;;;;3.94;76.56;100874.83;1710070;82;21231;-79
2022/12/21 09:08:40;;;;;;;14.90;8.98;;;;;;;3.89;76.99;100864.86;1708862;82;21733;-80
2022/12/21 09:11:46;;;;;;;15.75;8.28;;;;;;;3.93;77.09;100859.08;1706406;82;21219;-80
2022/12/21 09:14:55;;;;;;;15.68;9.03;;;;;;;3.65;77.31;100859.02;1723678;81;21203;-80
2022/12/21 09:18:04;;;;;;;15.80;9.38;;;;;;;3.57;77.71;100867.71;1703680;82;21449;-80
2022/12/21 09:21:10;;;;;;;15.70;9.55;;;;;;;3.67;77.73;100868.36;1700184;82;21210;-81
2022/12/21 09:24:17;;;;;;;16.02;9.15;;;;;;;3.64;77.27;100880.30;1707182;82;21267;-80
2022/12/21 09:27:23;;;;;;;16.60;9.90;;;;;;;3.89;76.36;100882.45;1697511;82;21247;-81
2022/12/21 09:30:29;;;;;;;18.75;9.70;;;;;;;3.69;76.71;100890.27;1694432;82;21195;-81
2022/12/21 09:33:34;;;;;;;16.10;9.65;;;;;;;3.76;76.87;100879.82;1708680;82;21327;-81
2022/12/21 09:36:43;;;;;;;16.75;9.20;;;;;;;3.97;76.71;100877.30;1700745;82;21206;-81
2022/12/21 09:39:54;;;;;;;16.82;9.65;;;;;;;4.12;76.01;100876.09;1703087;82;21244;-81
2022/12/21 09:43:50;;;;;;;15.50;9.05;;;;;;;3.59;77.93;100870.32;1701251;82;21193;-80
2022/12/21 09:46:58;;;;;;;17.15;9.03;;;;;;;3.65;78.29;100877.09;1702866;82;21205;-80
2022/12/21 09:50:09;;;;;;;19.15;9.78;;;;;;;3.65;79.00;100868.48;1702793;82;21252;-80
2022/12/21 09:53:17;;;;;;;19.50;9.75;;;;;;;3.70;78.80;100866.78;1689085;84;21213;-80
2022/12/21 09:56:28;;;;;;;16.75;9.50;;;;;;;3.62;78.79;100870.06;1690985;82;22298;-80
2022/12/21 09:59:33;;;;;;;16.62;9.80;;;;;;;3.70;78.83;100859.52;1702116;82;21250;-79
2022/12/21 10:02:49;;;;;;;20.40;9.20;;;;;;;3.77;79.29;100857.22;1696247;82;21328;-80
2022/12/21 10:06:18;;;;;;;14.73;9.05;;;;;;;3.91;79.10;100862.91;1672094;82;21233;-80
2022/12/21 10:10:12;;;;;;;16.15;9.18;;;;;;;4.23;78.43;100850.86;1696340;82;21152;-80
2022/12/21 10:13:53;;;;;;;16.48;9.55;;;;;;;5.08;76.46;100833.50;1677266;84;21288;-80
2022/12/21 10:17:16;;;;;;;13.60;8.15;;;;;;;4.80;76.43;100834.46;1712391;82;21217;-81
2022/12/21 10:20:30;;;;;;;18.52;9.68;;;;;;;4.90;76.49;100816.08;1697923;82;21168;-81
2022/12/21 10:23:49;;;;;;;17.92;9.25;;;;;;;5.45;75.01;100810.05;1705539;82;21209;-81
2022/12/21 10:26:57;;;;;;;20.60;9.13;;;;;;;5.23;75.52;100811.89;1700768;82;21264;-80
2022/12/21 10:30:05;;;;;;;15.15;7.67;;;;;;;5.28;75.51;100811.50;1697031;84;21173;-80
2022/12/21 10:33:10;;;;;;;15.23;8.43;;;;;;;5.32;75.79;100804.33;1691802;84;21176;-80
2022/12/21 10:36:24;;;;;;;20.82;8.58;;;;;;;5.20;75.91;100809.92;1701833;82;22496;-80
2022/12/21 10:39:30;;;;;;;15.08;8.13;;;;;;;5.21;75.67;100811.14;1708222;82;21557;-79
2022/12/21 10:42:44;;;;;;;13.98;8.28;;;;;;;5.37;75.09;100812.94;1703695;82;21165;-80
2022/12/21 10:45:50;;;;;;;14.35;8.20;;;;;;;5.42;74.26;100812.55;1704350;83;21261;-80
2022/12/21 10:48:58;;;;;;;11.88;6.70;;;;;;;5.52;74.02;100820.26;1695434;83;21272;-80
2022/12/21 10:52:03;;;;;;;15.70;8.13;;;;;;;5.42;73.85;100821.19;1695337;83;21241;-80
2022/12/21 10:55:06;;;;;;;15.13;7.55;;;;;;;5.33;73.79;100818.75;1699644;84;21289;-79
2022/12/21 10:58:29;;;;;;;13.08;7.37;;;;;;;5.43;73.65;100813.41;1675293;83;21207;-80
2022/12/21 11:01:36;;;;;;;13.50;7.78;;;;;;;5.38;73.74;100807.87;1676787;83;21330;-79
2022/12/21 11:04:42;;;;;;;18.00;8.73;;;;;;;5.35;73.81;100794.55;1705748;82;21336;-81
2022/12/21 11:07:50;;;;;;;17.23;8.98;;;;;;;5.20;74.69;100799.94;1705088;82;21691;-80
2022/12/21 11:11:01;;;;;;;17.17;8.30;;;;;;;5.26;74.63;100798.05;1679240;83;21789;-80
2022/12/21 11:14:12;;;;;;;13.58;7.78;;;;;;;5.32;74.65;100785.84;1678184;83;21234;-79
2022/12/21 11:17:38;;;;;;;14.33;7.85;;;;;;;5.47;74.48;100780.95;1699173;82;21201;-80
2022/12/21 11:20:44;;;;;;;15.08;8.43;;;;;;;5.43;74.36;100779.48;1707066;82;21224;-80
2022/12/21 11:24:03;;;;;;;12.25;7.35;;;;;;;5.35;74.35;100774.20;1676648;82;21311;-80
2022/12/21 11:27:27;;;;;;;22.00;7.83;;;;;;;5.25;74.44;100775.99;1699764;82;21882;-80
2022/12/21 11:30:39;;;;;;;17.67;8.05;;;;;;;5.30;74.34;100771.03;1702884;82;22106;-80
2022/12/21 11:33:44;;;;;;;15.98;7.65;;;;;;;5.33;74.48;100769.42;1708036;82;21244;-80
2022/12/21 11:37:07;;;;;;;14.33;7.42;;;;;;;5.30;74.84;100756.11;1701390;82;21240;-79
2022/12/21 11:40:25;;;;;;;15.18;7.53;;;;;;;5.34;74.53;100750.80;1676656;83;21319;-80
2022/12/21 11:43:30;;;;;;;16.02;8.90;;;;;;;5.37;74.77;100742.41;1708990;84;21216;-80
2022/12/21 11:47:07;;;;;;;16.97;8.68;;;;;;;5.43;75.13;100736.08;1706506;82;21183;-80
2022/12/21 11:50:30;;;;;;;18.23;9.30;;;;;;;5.48;75.09;100733.83;1707255;82;21180;-80
2022/12/21 11:53:55;;;;;;;21.25;8.98;;;;;;;5.57;74.88;100744.73;1704691;82;21173;-78
2022/12/21 11:57:07;;;;;;;16.27;8.18;;;;;;;5.56;74.83;100750.31;1705497;82;21168;-80
2022/12/21 12:00:20;;;;;;;17.42;8.83;;;;;;;5.82;74.19;100762.94;1701668;84;21165;-78
2022/12/21 12:03:33;;;;;;;16.87;8.10;;;;;;;5.84;73.54;100760.97;1678283;83;21186;-79
2022/12/21 12:06:40;;;;;;;20.55;9.10;;;;;;;5.75;73.89;100763.98;1707090;82;21184;-79
2022/12/21 12:10:24;;;;;;;10.85;7.35;;;;;;;5.80;73.36;100759.52;1696257;82;21379;-80
2022/12/21 12:13:37;;;;;;;16.45;8.98;;;;;;;5.71;73.87;100759.82;1700576;83;21180;-79
2022/12/21 12:16:49;;;;;;;14.33;8.28;;;;;;;5.68;74.09;100772.79;1704619;82;21213;-80
2022/12/21 12:20:09;;;;;;;18.30;9.35;;;;;;;5.56;74.51;100772.02;1697583;82;21180;-79
2022/12/21 12:23:28;;;;;;;16.97;8.97;;;;;;;5.63;74.47;100762.33;1679599;84;21807;-79
2022/12/21 12:27:02;;;;;;;14.13;7.90;;;;;;;5.64;74.51;100772.19;1684706;83;21259;-79
2022/12/21 12:30:24;;;;;;;15.32;8.53;;;;;;;5.56;74.64;100770.66;1579504;89;21226;-79
2022/12/21 12:33:50;;;;;;;13.22;8.43;;;;;;;5.59;74.62;100766.30;1672051;85;21212;-80
2022/12/21 12:37:36;;;;;;;15.70;8.10;;;;;;;5.52;74.90;100769.20;1666372;83;21263;-80
2022/12/21 12:41:06;;;;;;;15.90;8.75;;;;;;;5.39;75.55;100763.47;1593679;88;21281;-78
2022/12/21 12:44:19;;;;;;;17.90;8.63;;;;;;;5.30;75.98;100764.25;1687611;83;21176;-79
2022/12/21 12:48:04;;;;;;;18.12;9.38;;;;;;;5.28;76.37;100763.53;1687105;83;21192;-79
2022/12/21 12:51:38;;;;;;;13.75;8.78;;;;;;;5.20;76.58;100764.67;1625231;88;21242;-79
2022/12/21 12:55:01;;;;;;;16.65;8.78;;;;;;;5.43;76.20;100774.06;1689707;83;21261;-79
2022/12/21 12:58:40;;;;;;;14.50;7.65;;;;;;;5.37;76.30;100765.96;1684745;83;21251;-79
2022/12/21 13:02:09;;;;;;;15.68;9.73;;;;;;;5.33;76.39;100771.28;1693495;84;21185;-79
2022/12/21 13:05:52;;;;;;;19.77;9.30;;;;;;;5.36;75.94;100777.78;1698865;84;21207;-79
2022/12/21 13:09:33;;;;;;;15.48;9.50;;;;;;;5.33;76.04;100782.98;1674403;85;21244;-79
2022/12/21 13:12:46;;;;;;;21.70;10.10;;;;;;;5.22;76.34;100781.70;1689900;82;21277;-79
2022/12/21 13:15:59;;;;;;;21.25;9.13;;;;;;;5.24;76.53;100775.64;1712697;81;22535;-79
2022/12/21 13:19:13;;;;;;;19.42;9.48;;;;;;;5.26;76.92;100772.28;1723636;81;21805;-80
2022/12/21 13:22:20;;;;;;;19.67;9.83;;;;;;;5.32;76.78;100766.36;1707882;82;21237;-79
2022/12/21 13:25:49;;;;;;;17.42;10.05;;;;;;;5.36;76.75;100767.81;1707226;82;21208;-80
2022/12/21 13:29:25;;;;;;;20.12;10.38;;;;;;;5.25;76.83;100761.08;1703244;82;21228;-79
2022/12/21 13:32:39;;;;;;;19.25;9.93;;;;;;;5.06;77.30;100768.56;1707348;82;21236;-79
2022/12/21 13:36:14;;;;;;;18.17;9.90;;;;;;;4.99;77.55;100761.09;1697582;83;21280;-79
2022/12/21 13:39:38;;;;;;;20.32;9.88;;;;;;;4.86;78.06;100767.53;1688911;85;21204;-79
2022/12/21 13:43:07;;;;;;;18.45;10.65;;;;;;;4.85;78.06;100771.24;1725889;82;21204;-79
2022/12/21 13:46:14;;;;;;;23.20;9.80;;;;;;;4.88;78.01;100766.04;1704413;82;21181;-78
2022/12/21 13:50:02;;;;;;;22.93;10.53;;;;;;;4.82;77.70;100767.42;1704224;82;21187;-79
2022/12/21 13:53:31;;;;;;;22.87;12.05;;;;;;;4.76;78.06;100772.51;1699239;82;21259;-79
2022/12/21 13:57:17;;;;;;;28.32;13.53;;;;;;;4.71;77.73;100772.03;1710261;82;21724;-79
2022/12/21 14:00:47;;;;;;;30.02;14.35;;;;;;;4.61;78.05;100761.06;1685255;82;21255;-79
2022/12/21 14:04:11;;;;;;;28.77;16.30;;;;;;;4.53;78.34;100768.48;1700074;83;21317;-79
2022/12/21 14:07:35;;;;;;;29.82;16.30;;;;;;;4.48;77.98;100763.09;1701181;82;21472;-79
2022/12/21 14:11:25;;;;;;;25.43;13.28;;;;;;;4.55;77.65;100765.14;1702621;83;21208;-79
2022/12/21 14:15:05;;;;;;;25.35;13.90;;;;;;;4.57;77.05;100763.69;1715355;83;21280;-79
2022/12/21 14:18:13;;;;;;;22.07;12.13;;;;;;;4.30;77.63;100766.30;1716171;83;21201;-80
2022/12/21 14:21:40;;;;;;;24.57;13.38;;;;;;;4.30;77.24;100756.83;1716085;83;21323;-79
2022/12/21 14:24:46;;;;;;;18.23;10.93;;;;;;;4.73;75.58;100754.64;1704463;82;21282;-79
2022/12/21 14:28:22;;;;;;;21.73;11.30;;;;;;;4.38;76.08;100752.16;1740219;82;21170;-79
2022/12/21 14:31:28;;;;;;;20.57;10.78;;;;;;;4.04;76.38;100753.52;1686887;83;21870;-79
2022/12/21 14:34:37;;;;;;;21.55;11.63;;;;;;;4.31;75.09;100753.62;1686835;85;21236;-79
2022/12/21 14:37:51;;;;;;;19.98;11.63;;;;;;;4.21;75.26;100759.42;1720473;82;21462;-80
2022/12/21 14:41:09;;;;;;;21.35;11.88;;;;;;;4.37;74.90;100761.23;1746424;82;21190;-78
2022/12/21 14:44:24;;;;;;;22.75;11.93;;;;;;;4.57;73.90;100754.20;1745543;82;21578;-79
2022/12/21 14:47:23;;;;;;;23.47;12.82;;;;;;;4.52;74.21;100762.71;1745048;82;21214;-79
2022/12/21 14:50:33;;;;;;;50.17;24.35;;;;;;;4.53;73.60;100751.38;1746306;82;21202;-78
2022/12/21 14:53:33;;;;;;;66.85;29.95;;;;;;;4.52;74.49;100757.30;1747288;82;21199;-78
2022/12/21 14:56:26;;;;;;;69.82;30.05;;;;;;;4.21;75.71;100752.16;1747572;82;21242;-79
2022/12/21 14:59:13;;;;;;;46.08;22.07;;;;;;;4.12;76.03;100753.41;1747627;82;21191;-79
2022/12/21 15:02:08;;;;;;;36.95;18.50;;;;;;;4.03;76.65;100742.82;1733775;82;21220;-78
2022/12/21 15:05:34;;;;;;;34.50;18.37;;;;;;;3.87;77.48;100747.76;1717294;83;21863;-78